Time;durP1;ratioP1;P1;durP2;ratioP2;P2;SDS_P1;SDS_P2;PMS_P1;PMS_P2;Temp;Humidity;BMP_temperature;BMP_pressure;BME280_temperature;BME280_humidity;BME280_pressure;Samples;Min_cycle;Max_cycle;Signal;HPM_P1;HPM_P2
2023/07/14 00:01:39;;;;;;;14.80;10.15;;;13.50;99.90;;;;;;5074371;28;20076;-22
2023/07/14 00:04:28;;;;;;;17.98;10.98;;;13.50;99.90;;;;;;5056819;28;20124;-22
2023/07/14 00:06:54;;;;;;;17.50;11.35;;;13.50;99.90;;;;;;5074401;28;20045;-22
2023/07/14 00:09:25;;;;;;;17.58;10.88;;;13.40;99.90;;;;;;5074326;28;20098;-22
2023/07/14 00:11:52;;;;;;;17.38;11.02;;;13.40;99.90;;;;;;5074295;28;20044;-22
2023/07/14 00:14:17;;;;;;;16.13;9.75;;;13.40;99.90;;;;;;5074242;28;20052;-22
2023/07/14 00:16:44;;;;;;;19.38;10.32;;;13.40;99.90;;;;;;5074490;28;20048;-22
2023/07/14 00:19:15;;;;;;;23.42;10.07;;;13.40;99.90;;;;;;5074704;28;20060;-22
2023/07/14 00:21:42;;;;;;;15.80;10.70;;;13.40;99.90;;;;;;5073986;28;20172;-23
2023/07/14 00:24:12;;;;;;;16.10;11.15;;;13.40;99.90;;;;;;5074086;28;20052;-23
2023/07/14 00:26:40;;;;;;;18.10;10.63;;;13.40;99.90;;;;;;5074644;28;20044;-22
2023/07/14 00:29:26;;;;;;;21.90;11.57;;;13.40;99.90;;;;;;5074271;28;20059;-22
2023/07/14 00:31:52;;;;;;;21.38;11.52;;;13.40;99.90;;;;;;5070882;28;20370;-22
2023/07/14 00:34:17;;;;;;;13.93;10.18;;;13.40;99.90;;;;;;5073892;28;20059;-22
2023/07/14 00:36:43;;;;;;;14.95;10.75;;;13.30;99.90;;;;;;5072904;28;20055;-22
2023/07/14 00:39:09;;;;;;;19.98;9.85;;;13.30;99.90;;;;;;5056026;28;20075;-23
2023/07/14 00:41:35;;;;;;;16.10;10.93;;;13.40;99.90;;;;;;5072873;28;20068;-22
2023/07/14 00:44:01;;;;;;;15.88;10.32;;;13.40;99.90;;;;;;5072400;28;20103;-22
2023/07/14 00:46:29;;;;;;;14.77;10.32;;;13.40;99.90;;;;;;5074590;28;20114;-22
2023/07/14 00:49:06;;;;;;;18.60;11.63;;;13.40;99.90;;;;;;5073774;28;20055;-22
2023/07/14 00:51:35;;;;;;;14.85;10.32;;;13.40;99.90;;;;;;5073779;28;20052;-22
2023/07/14 00:54:01;;;;;;;20.13;10.68;;;13.40;99.90;;;;;;5072759;28;20127;-22
2023/07/14 00:56:32;;;;;;;17.90;12.13;;;13.40;99.90;;;;;;5072994;28;20135;-22
2023/07/14 00:58:58;;;;;;;15.93;9.90;;;13.50;99.90;;;;;;5073648;28;20084;-22
2023/07/14 01:01:25;;;;;;;16.83;10.65;;;13.50;99.90;;;;;;5072990;28;20040;-22
2023/07/14 01:03:58;;;;;;;16.85;10.55;;;13.50;99.90;;;;;;5073264;28;20505;-22
2023/07/14 01:06:38;;;;;;;14.10;10.43;;;13.50;99.90;;;;;;5074051;28;20074;-22
2023/07/14 01:09:08;;;;;;;16.42;10.93;;;13.60;99.90;;;;;;5073441;28;20139;-22
2023/07/14 01:11:42;;;;;;;17.80;11.38;;;13.60;99.90;;;;;;5073630;28;20046;-22
2023/07/14 01:14:13;;;;;;;15.65;10.38;;;13.50;99.90;;;;;;5073819;28;20113;-22
2023/07/14 01:16:40;;;;;;;15.70;10.07;;;13.50;99.90;;;;;;5073554;28;20047;-22
2023/07/14 01:19:23;;;;;;;14.65;11.55;;;13.50;99.90;;;;;;5073445;28;20044;-22
2023/07/14 01:21:53;;;;;;;;;;;13.50;99.90;;;;;;5074168;28;20055;-22
2023/07/14 01:24:29;;;;;;;17.98;11.32;;;13.40;99.90;;;;;;5072174;28;19943;-22
2023/07/14 01:27:08;;;;;;;20.30;12.15;;;13.40;99.90;;;;;;5074284;28;20080;-22
2023/07/14 01:29:34;;;;;;;18.23;12.27;;;13.40;99.90;;;;;;5072972;28;20194;-22
2023/07/14 01:32:01;;;;;;;19.02;13.32;;;13.30;99.90;;;;;;5072657;28;20471;-22
2023/07/14 01:34:28;;;;;;;21.58;12.30;;;13.30;99.90;;;;;;5073278;28;20056;-22
2023/07/14 01:36:58;;;;;;;23.25;13.15;;;13.20;99.90;;;;;;5073206;28;20052;-23
2023/07/14 01:39:25;;;;;;;18.98;14.27;;;13.20;99.90;;;;;;5056292;28;20048;-22
2023/07/14 01:41:52;;;;;;;16.83;12.77;;;13.10;99.90;;;;;;5072970;28;20048;-22
2023/07/14 01:44:19;;;;;;;20.23;14.35;;;13.10;99.90;;;;;;5072858;28;20486;-22
2023/07/14 01:46:47;;;;;;;19.90;13.90;;;13.00;99.90;;;;;;5073166;28;20132;-22
2023/07/14 01:49:25;;;;;;;22.98;14.75;;;13.00;99.90;;;;;;5072007;28;20071;-22
2023/07/14 01:51:53;;;;;;;21.30;13.95;;;13.00;99.90;;;;;;5073176;28;20036;-22
2023/07/14 01:54:31;;;;;;;24.55;15.95;;;13.00;99.90;;;;;;5073138;28;20055;-22
2023/07/14 01:56:59;;;;;;;20.02;14.45;;;13.00;99.90;;;;;;5072538;28;20131;-22
2023/07/14 01:59:30;;;;;;;26.52;15.73;;;13.00;99.90;;;;;;5073070;28;20486;-23
2023/07/14 02:01:59;;;;;;;20.05;14.63;;;13.00;99.90;;;;;;5071937;28;20474;-22
2023/07/14 02:04:32;;;;;;;19.23;13.77;;;12.90;99.90;;;;;;5073073;28;20486;-22
2023/07/14 02:07:01;;;;;;;24.55;15.25;;;12.90;99.90;;;;;;5073654;28;20127;-22
2023/07/14 02:09:29;;;;;;;19.33;14.88;;;12.90;99.90;;;;;;5072363;28;20045;-22
2023/07/14 02:12:03;;;;;;;24.75;15.73;;;12.90;99.90;;;;;;5073017;28;20119;-22
2023/07/14 02:14:40;;;;;;;22.40;15.65;;;12.90;99.90;;;;;;5073553;28;20090;-22
2023/07/14 02:17:12;;;;;;;19.88;15.45;;;12.90;99.90;;;;;;5074596;28;20044;-22
2023/07/14 02:19:38;;;;;;;20.63;16.17;;;12.90;99.90;;;;;;5077066;28;20428;-22
2023/07/14 02:22:05;;;;;;;19.63;15.15;;;12.90;99.90;;;;;;5058800;28;20098;-22
2023/07/14 02:24:31;;;;;;;23.40;14.85;;;12.90;99.90;;;;;;5058621;28;20117;-22
2023/07/14 02:27:02;;;;;;;21.33;15.13;;;13.00;99.90;;;;;;5076334;28;20044;-22
2023/07/14 02:29:29;;;;;;;23.25;14.93;;;12.90;99.90;;;;;;5076338;28;20124;-22
2023/07/14 02:32:00;;;;;;;21.38;14.57;;;13.00;99.90;;;;;;5076279;28;20462;-22
2023/07/14 02:34:35;;;;;;;22.63;15.43;;;13.00;99.90;;;;;;5075056;28;20044;-22
2023/07/14 02:37:21;;;;;;;21.70;15.02;;;13.00;99.90;;;;;;5076092;28;20055;-22
2023/07/14 02:39:48;;;;;;;24.17;17.02;;;13.00;99.90;;;;;;5075239;28;20052;-22
2023/07/14 02:42:14;;;;;;;21.67;16.50;;;13.00;99.90;;;;;;5074454;28;20461;-22
2023/07/14 02:44:40;;;;;;;21.90;15.38;;;13.10;99.90;;;;;;5074835;28;20049;-22
2023/07/14 02:47:14;;;;;;;28.25;17.08;;;13.10;99.90;;;;;;5075996;28;20052;-22
2023/07/14 02:49:41;;;;;;;24.13;15.27;;;13.10;99.90;;;;;;5076258;28;20091;-22
2023/07/14 02:52:07;;;;;;;23.98;15.55;;;13.10;99.90;;;;;;5075877;28;20055;-22
2023/07/14 02:54:32;;;;;;;19.85;15.77;;;13.00;99.90;;;;;;5075797;28;20048;-22
2023/07/14 02:56:58;;;;;;;19.52;15.18;;;13.00;99.90;;;;;;5075744;28;20044;-22
2023/07/14 02:59:24;;;;;;;23.65;16.80;;;13.00;99.90;;;;;;5076301;28;20098;-22
2023/07/14 03:01:49;;;;;;;22.40;17.38;;;12.90;99.90;;;;;;5074428;28;20094;-22
2023/07/14 03:04:15;;;;;;;23.30;16.27;;;12.90;99.90;;;;;;5075896;28;20060;-22
2023/07/14 03:06:41;;;;;;;28.05;16.85;;;12.80;99.90;;;;;;5074431;28;20048;-22
2023/07/14 03:09:07;;;;;;;26.70;17.55;;;12.80;99.90;;;;;;5075520;28;20551;-22
2023/07/14 03:11:32;;;;;;;27.95;18.02;;;12.80;99.90;;;;;;5058702;28;20048;-22
2023/07/14 03:13:58;;;;;;;24.10;17.48;;;12.70;99.90;;;;;;5075050;28;20045;-22
2023/07/14 03:16:25;;;;;;;29.10;17.38;;;12.70;99.90;;;;;;5074964;28;20509;-22
2023/07/14 03:18:51;;;;;;;27.40;17.30;;;12.70;99.90;;;;;;5075337;28;20052;-22
2023/07/14 03:21:17;;;;;;;25.75;17.65;;;12.70;99.90;;;;;;5074219;28;20052;-22
2023/07/14 03:23:42;;;;;;;27.90;18.52;;;12.70;99.90;;;;;;5075531;28;20045;-22
2023/07/14 03:26:09;;;;;;;27.15;18.52;;;12.70;99.90;;;;;;5075208;28;20401;-22
2023/07/14 03:28:36;;;;;;;23.17;15.73;;;12.70;99.90;;;;;;5073507;28;20131;-22
2023/07/14 03:31:02;;;;;;;22.05;18.58;;;12.60;99.90;;;;;;5057435;28;20132;-22
2023/07/14 03:33:29;;;;;;;27.92;19.73;;;12.60;99.90;;;;;;5075055;28;20127;-22
2023/07/14 03:35:56;;;;;;;28.13;19.52;;;12.70;99.90;;;;;;5074960;28;20051;-22
2023/07/14 03:38:22;;;;;;;28.15;19.58;;;12.70;99.90;;;;;;5073994;28;20466;-22
2023/07/14 03:40:47;;;;;;;27.67;19.80;;;12.60;99.90;;;;;;5074883;28;20051;-22
2023/07/14 03:43:13;;;;;;;29.02;18.75;;;12.60;99.90;;;;;;5075083;28;20067;-22
2023/07/14 03:45:39;;;;;;;24.58;17.00;;;12.50;99.90;;;;;;5075627;28;20052;-22
2023/07/14 03:48:05;;;;;;;23.58;16.85;;;12.50;99.90;;;;;;5074806;28;20488;-22
2023/07/14 03:50:33;;;;;;;27.00;18.35;;;12.50;99.90;;;;;;5074683;28;20044;-22
2023/07/14 03:52:59;;;;;;;27.80;18.00;;;12.50;99.90;;;;;;5074653;28;20047;-22
2023/07/14 03:55:25;;;;;;;24.63;18.23;;;12.50;99.90;;;;;;5073937;28;20044;-22
2023/07/14 03:57:50;;;;;;;29.55;18.42;;;12.50;99.90;;;;;;5074595;28;20047;-22
2023/07/14 04:00:18;;;;;;;25.95;17.23;;;12.60;99.90;;;;;;5074560;28;20422;-22
2023/07/14 04:02:45;;;;;;;26.50;16.27;;;12.60;99.90;;;;;;5074401;28;20048;-22
2023/07/14 04:05:12;;;;;;;23.60;18.45;;;12.60;99.90;;;;;;5075245;28;20066;-24
2023/07/14 04:07:39;;;;;;;23.23;16.20;;;12.60;99.90;;;;;;5074396;28;20048;-24
2023/07/14 04:10:06;;;;;;;26.15;16.65;;;12.70;99.90;;;;;;5074340;28;20048;-24
2023/07/14 04:12:33;;;;;;;24.67;16.42;;;12.80;99.90;;;;;;5074300;28;20041;-24
2023/07/14 04:14:59;;;;;;;21.27;15.45;;;12.80;99.90;;;;;;5074251;28;20097;-24
2023/07/14 04:17:25;;;;;;;28.60;17.70;;;12.80;99.90;;;;;;5074170;28;20127;-24
2023/07/14 04:19:51;;;;;;;25.55;16.33;;;12.90;99.90;;;;;;5074238;28;20124;-24
2023/07/14 04:22:18;;;;;;;23.48;15.45;;;13.00;99.90;;;;;;5074105;28;20048;-24
2023/07/14 04:24:45;;;;;;;22.33;15.48;;;13.00;99.90;;;;;;5074102;28;20044;-24
2023/07/14 04:27:15;;;;;;;21.10;15.38;;;13.10;99.90;;;;;;5056150;28;20498;-24
2023/07/14 04:29:41;;;;;;;22.65;15.23;;;13.10;99.90;;;;;;5057790;28;20056;-24
2023/07/14 04:32:07;;;;;;;24.75;15.30;;;13.20;99.90;;;;;;5073962;28;20045;-24
2023/07/14 04:34:36;;;;;;;18.88;14.05;;;13.20;99.90;;;;;;5073047;28;20393;-24
2023/07/14 04:37:03;;;;;;;20.50;14.65;;;13.30;99.90;;;;;;5073852;28;20052;-24
2023/07/14 04:39:29;;;;;;;20.90;12.98;;;13.30;99.90;;;;;;5072897;28;20524;-24
2023/07/14 04:41:55;;;;;;;17.65;12.05;;;13.40;99.90;;;;;;5073628;28;20045;-24
2023/07/14 04:44:21;;;;;;;19.40;11.88;;;13.50;99.90;;;;;;5073542;28;20048;-24
2023/07/14 04:46:48;;;;;;;18.27;11.45;;;13.50;99.90;;;;;;5073815;28;20057;-25
2023/07/14 04:49:17;;;;;;;18.98;10.60;;;13.60;99.90;;;;;;5074311;28;20055;-24
2023/07/14 04:51:43;;;;;;;16.50;9.95;;;13.60;99.90;;;;;;5074526;28;20137;-24
2023/07/14 04:54:10;;;;;;;17.10;9.90;;;13.80;99.90;;;;;;5073756;28;20048;-24
2023/07/14 04:56:37;;;;;;;14.68;9.45;;;13.90;99.90;;;;;;5073729;28;20044;-24
2023/07/14 04:59:05;;;;;;;16.42;9.38;;;14.00;99.90;;;;;;5073678;28;20045;-24
2023/07/14 05:01:31;;;;;;;18.98;9.68;;;14.10;99.90;;;;;;5074363;28;20043;-24
2023/07/14 05:03:57;;;;;;;17.73;9.65;;;14.20;99.90;;;;;;5073637;28;20052;-25
2023/07/14 05:06:23;;;;;;;13.98;9.45;;;14.30;99.90;;;;;;5073591;28;20044;-24
2023/07/14 05:08:49;;;;;;;14.68;9.32;;;14.40;99.90;;;;;;5073555;28;20044;-24
2023/07/14 05:11:15;;;;;;;13.85;8.70;;;14.50;99.90;;;;;;5073548;28;20051;-24
2023/07/14 05:13:41;;;;;;;16.42;8.82;;;14.60;99.90;;;;;;5072841;28;20094;-24
2023/07/14 05:16:07;;;;;;;15.00;8.80;;;14.60;99.90;;;;;;5074329;28;20056;-24
2023/07/14 05:18:32;;;;;;;13.43;7.75;;;14.80;99.90;;;;;;5055557;28;20479;-25
2023/07/14 05:21:04;;;;;;;18.63;7.72;;;15.00;99.90;;;;;;5073401;28;20093;-24
2023/07/14 05:23:31;;;;;;;13.43;7.80;;;15.20;99.90;;;;;;5072424;28;20040;-25
2023/07/14 05:25:56;;;;;;;18.40;7.82;;;15.50;99.90;;;;;;5072281;28;20634;-25
2023/07/14 05:28:22;;;;;;;14.80;8.50;;;15.80;99.90;;;;;;5073993;28;20084;-24
2023/07/14 05:30:50;;;;;;;14.65;7.30;;;16.20;99.90;;;;;;5073648;28;20068;-25
2023/07/14 05:33:16;;;;;;;9.85;6.93;;;16.40;99.90;;;;;;5073074;28;20478;-25
2023/07/14 05:35:43;;;;;;;14.02;7.35;;;16.70;99.90;;;;;;5072307;28;20142;-25
2023/07/14 05:38:09;;;;;;;14.00;6.55;;;17.00;99.90;;;;;;5073311;28;20515;-25
2023/07/14 05:40:35;;;;;;;11.68;7.68;;;17.00;76.00;;;;;;5072303;28;20079;-25
2023/07/14 05:43:00;;;;;;;10.32;6.47;;;17.30;55.90;;;;;;5055426;28;20087;-25
2023/07/14 05:45:26;;;;;;;10.25;6.53;;;17.70;1.00;;;;;;5072642;28;20114;-25
2023/07/14 05:47:53;;;;;;;12.35;6.80;;;;;;;;;;5073488;28;20044;-24
2023/07/14 05:50:19;;;;;;;11.50;5.80;;;18.50;99.90;;;;;;5072372;28;20127;-25
2023/07/14 05:52:46;;;;;;;9.52;5.30;;;18.50;1.00;;;;;;5075768;28;20036;-25
2023/07/14 05:55:12;;;;;;;12.88;5.93;;;18.90;1.00;;;;;;5077159;28;20059;-25
2023/07/14 05:57:38;;;;;;;9.70;5.53;;;19.10;1.00;;;;;;5076738;28;20048;-25
2023/07/14 06:00:13;;;;;;;10.30;4.63;;;19.40;99.90;;;;;;5076869;28;20050;-25
2023/07/14 06:02:46;;;;;;;11.50;5.35;;;19.60;99.90;;;;;;5077015;28;20494;-25
2023/07/14 06:05:13;;;;;;;11.00;5.30;;;19.80;99.90;;;;;;5076137;28;20087;-25
2023/07/14 06:07:40;;;;;;;13.43;5.80;;;20.10;99.90;;;;;;5076697;28;20041;-25
2023/07/14 06:10:07;;;;;;;9.73;4.88;;;20.00;54.60;;;;;;5076674;28;20119;-25
2023/07/14 06:12:33;;;;;;;9.68;4.88;;;20.30;96.10;;;;;;5076604;28;20120;-26
2023/07/14 06:14:59;;;;;;;9.32;4.80;;;20.20;11.60;;;;;;5076556;28;20132;-25
2023/07/14 06:17:24;;;;;;;16.55;5.25;;;20.30;99.90;;;;;;5075539;28;20088;-25
2023/07/14 06:19:50;;;;;;;8.43;4.72;;;20.30;1.00;;;;;;5077566;28;20047;-25
2023/07/14 06:22:16;;;;;;;9.07;4.53;;;20.10;99.90;;;;;;5075784;28;20480;-26
2023/07/14 06:24:42;;;;;;;14.48;4.55;;;20.30;99.90;;;;;;5076964;28;20071;-26
2023/07/14 06:27:08;;;;;;;10.38;4.80;;;20.40;99.90;;;;;;5076367;28;20044;-26
2023/07/14 06:29:34;;;;;;;9.32;4.60;;;20.50;1.00;;;;;;5076369;28;20044;-26
2023/07/14 06:32:01;;;;;;;12.13;4.90;;;20.40;1.00;;;;;;5076279;28;20052;-25
2023/07/14 06:34:26;;;;;;;10.82;4.40;;;20.30;99.90;;;;;;5075063;28;20137;-25
2023/07/14 06:36:52;;;;;;;11.48;4.70;;;20.80;1.00;;;;;;5076128;28;20083;-25
2023/07/14 06:39:19;;;;;;;7.97;4.07;;;20.90;1.00;;;;;;5075196;28;20133;-26
2023/07/14 06:41:46;;;;;;;10.25;4.30;;;21.00;99.90;;;;;;5074828;28;20047;-26
2023/07/14 06:44:12;;;;;;;9.25;4.20;;;21.20;99.90;;;;;;5074321;28;20063;-26
2023/07/14 06:46:37;;;;;;;10.77;4.13;;;21.10;99.90;;;;;;5076015;28;20040;-26
2023/07/14 06:49:03;;;;;;;9.43;4.45;;;21.20;99.90;;;;;;5075547;28;20048;-25
2023/07/14 06:51:29;;;;;;;12.55;4.78;;;21.20;99.90;;;;;;5074754;28;20040;-26
2023/07/14 06:53:55;;;;;;;6.85;3.70;;;21.10;45.40;;;;;;5075898;28;20045;-26
2023/07/14 06:56:21;;;;;;;8.80;3.90;;;21.30;99.90;;;;;;5058719;28;20047;-25
2023/07/14 06:58:47;;;;;;;15.70;4.60;;;21.50;5.40;;;;;;5075734;28;20056;-26
2023/07/14 07:01:14;;;;;;;10.23;3.40;;;21.50;1.00;;;;;;5041450;28;20055;-26
2023/07/14 07:03:40;;;;;;;10.25;4.35;;;21.50;1.00;;;;;;5073602;28;20394;-26
2023/07/14 07:06:06;;;;;;;8.23;3.88;;;21.20;31.90;;;;;;5076439;28;20371;-25
2023/07/14 07:08:32;;;;;;;14.75;4.32;;;21.50;1.00;;;;;;5075002;28;20043;-26
2023/07/14 07:10:58;;;;;;;8.35;3.65;;;21.50;99.90;;;;;;5075538;28;20079;-27
2023/07/14 07:13:24;;;;;;;8.35;3.20;;;21.40;99.90;;;;;;5075478;28;20049;-26
2023/07/14 07:15:49;;;;;;;11.35;4.07;;;21.30;99.90;;;;;;5075187;28;20094;-27
2023/07/14 07:18:19;;;;;;;8.45;3.10;;;21.60;99.90;;;;;;5075420;28;20090;-26
2023/07/14 07:20:45;;;;;;;10.48;2.85;;;21.70;99.90;;;;;;5076259;28;20052;-26
2023/07/14 07:23:11;;;;;;;9.65;2.88;;;21.80;99.90;;;;;;5074871;28;20530;-26
2023/07/14 07:25:37;;;;;;;9.57;3.00;;;21.90;99.90;;;;;;5075246;28;20596;-26
2023/07/14 07:28:03;;;;;;;7.57;3.10;;;22.00;99.90;;;;;;5074536;28;20055;-26
2023/07/14 07:30:31;;;;;;;6.45;3.38;;;21.80;99.90;;;;;;5074038;28;20052;-25
2023/07/14 07:32:57;;;;;;;7.40;3.17;;;22.10;1.00;;;;;;5073895;28;20049;-26
2023/07/14 07:35:23;;;;;;;6.38;3.30;;;22.10;1.00;;;;;;5075665;28;20131;-26
2023/07/14 07:37:49;;;;;;;9.18;4.55;;;21.90;17.80;;;;;;5073362;28;20152;-26
2023/07/14 07:40:15;;;;;;;6.85;4.15;;;22.40;1.00;;;;;;5074731;28;20041;-26
2023/07/14 07:42:41;;;;;;;8.15;3.78;;;22.60;1.00;;;;;;5073216;28;20060;-26
2023/07/14 07:45:07;;;;;;;8.48;4.25;;;22.80;99.90;;;;;;5075651;28;20088;-26
2023/07/14 07:47:33;;;;;;;9.32;4.05;;;22.80;99.90;;;;;;5074758;28;20055;-26
2023/07/14 07:49:58;;;;;;;6.32;3.50;;;22.40;99.90;;;;;;5057399;28;20048;-26
2023/07/14 07:52:24;;;;;;;8.27;4.15;;;22.30;99.90;;;;;;5074945;28;20044;-26
2023/07/14 07:54:50;;;;;;;6.38;4.13;;;22.60;99.90;;;;;;5073065;28;20544;-26
2023/07/14 07:57:16;;;;;;;7.90;4.38;;;22.40;99.90;;;;;;5075349;28;20536;-26
2023/07/14 07:59:41;;;;;;;7.30;4.18;;;22.20;99.90;;;;;;5073227;28;20048;-26
2023/07/14 08:02:07;;;;;;;9.15;4.00;;;22.40;99.90;;;;;;5057118;28;20076;-26
2023/07/14 08:04:34;;;;;;;9.65;4.10;;;22.50;99.90;;;;;;5073195;28;20060;-26
2023/07/14 08:06:59;;;;;;;8.63;3.97;;;22.30;99.90;;;;;;5074429;28;20044;-26
2023/07/14 08:09:25;;;;;;;7.13;3.88;;;22.40;99.90;;;;;;5074426;28;20045;-26
2023/07/14 08:11:56;;;;;;;5.90;2.40;;;22.50;1.00;;;;;;5073607;28;20051;-26
2023/07/14 08:14:22;;;;;;;7.05;2.60;;;22.50;1.00;;;;;;5073940;28;20498;-26
2023/07/14 08:16:48;;;;;;;5.85;3.00;;;22.50;1.00;;;;;;5073046;28;20048;-25
2023/07/14 08:19:14;;;;;;;8.55;2.75;;;22.50;99.90;;;;;;5073240;28;20550;-26
2023/07/14 08:21:40;;;;;;;7.85;3.15;;;22.50;99.90;;;;;;5056342;28;20489;-26
2023/07/14 08:24:07;;;;;;;5.63;2.50;;;22.90;99.90;;;;;;5074927;28;20048;-26
2023/07/14 08:26:34;;;;;;;7.03;3.78;;;22.90;99.90;;;;;;5074101;28;20500;-26
2023/07/14 08:29:00;;;;;;;7.80;3.22;;;22.60;99.90;;;;;;5074869;28;20080;-26
2023/07/14 08:31:26;;;;;;;4.90;2.55;;;22.60;99.90;;;;;;5074017;28;20043;-26
2023/07/14 08:33:51;;;;;;;6.57;3.05;;;22.80;99.90;;;;;;5073968;28;20045;-27
2023/07/14 08:36:18;;;;;;;4.35;2.45;;;22.80;99.90;;;;;;5073903;28;20135;-26
2023/07/14 08:38:44;;;;;;;9.10;2.75;;;23.30;99.90;;;;;;5073962;28;20048;-26
2023/07/14 08:41:29;;;;;;;6.10;2.38;;;23.40;99.90;;;;;;5074607;28;20441;-26
2023/07/14 08:44:33;;;;;;;5.43;2.30;;;23.50;99.90;;;;;;5073946;28;20095;-26
2023/07/14 08:47:15;;;;;;;5.82;2.83;;;24.00;1.00;;;;;;5061666;28;20102;-26
2023/07/14 08:49:56;;;;;;;6.07;2.83;;;23.60;1.00;;;;;;5074387;28;20127;-27
2023/07/14 08:52:32;;;;;;;5.95;3.00;;;24.00;18.50;;;;;;5074629;28;20037;-26
2023/07/14 08:55:15;;;;;;;4.65;2.88;;;24.20;1.00;;;;;;5073071;28;20143;-26
2023/07/14 08:57:49;;;;;;;4.40;2.00;;;23.70;99.90;;;;;;5072801;28;20170;-27
2023/07/14 09:00:38;;;;;;;5.50;2.70;;;22.70;1.00;;;;;;5074290;28;20127;-27
2023/07/14 09:03:09;;;;;;;4.68;2.30;;;22.00;1.00;;;;;;5073549;28;20073;-27
2023/07/14 09:05:46;;;;;;;5.65;2.50;;;21.90;1.00;;;;;;5073982;28;20045;-26
2023/07/14 09:08:12;;;;;;;6.47;2.50;;;22.70;1.00;;;;;;5074268;28;20053;-27
2023/07/14 09:11:02;;;;;;;5.90;2.50;;;23.30;99.90;;;;;;5055680;28;20044;-28
2023/07/14 09:13:44;;;;;;;4.13;2.10;;;23.30;99.90;;;;;;5073605;28;20178;-26
2023/07/14 09:16:12;;;;;;;3.77;1.90;;;22.80;99.90;;;;;;5074157;28;20044;-26
2023/07/14 09:18:47;;;;;;;3.92;1.98;;;23.20;99.90;;;;;;5072244;28;20049;-26
2023/07/14 09:21:28;;;;;;;4.47;2.45;;;23.60;99.90;;;;;;5073466;28;20044;-26
2023/07/14 09:24:12;;;;;;;4.45;1.80;;;24.20;99.90;;;;;;5074070;28;20049;-27
2023/07/14 09:26:44;;;;;;;4.57;1.98;;;24.40;99.90;;;;;;5076784;28;20048;-27
2023/07/14 09:29:16;;;;;;;3.13;1.70;;;24.90;99.90;;;;;;5078140;28;20055;-26
2023/07/14 09:32:03;;;;;;;3.78;1.90;;;24.80;99.90;;;;;;5078042;28;20089;-27
2023/07/14 09:34:56;;;;;;;4.45;2.42;;;25.10;99.90;;;;;;5077429;28;20048;-27
2023/07/14 09:37:38;;;;;;;4.25;2.47;;;25.40;99.90;;;;;;5075187;28;20489;-27
2023/07/14 09:40:19;;;;;;;4.47;1.92;;;25.50;99.90;;;;;;5077899;28;20048;-26
2023/07/14 09:42:50;;;;;;;4.03;2.03;;;25.00;51.70;;;;;;5077958;28;20422;-27
2023/07/14 09:45:20;;;;;;;4.50;2.15;;;25.30;87.50;;;;;;5078078;28;20462;-27
2023/07/14 09:47:51;;;;;;;5.90;1.92;;;25.50;88.40;;;;;;5077150;28;20048;-27
2023/07/14 09:50:18;;;;;;;3.75;1.55;;;25.90;21.10;;;;;;5077392;28;20052;-27
2023/07/14 09:52:56;;;;;;;4.10;2.05;;;25.70;1.00;;;;;;5077019;28;20048;-27
2023/07/14 09:55:23;;;;;;;5.88;2.45;;;25.90;8.40;;;;;;5059388;28;20098;-28
2023/07/14 09:57:54;;;;;;;5.28;2.35;;;26.10;29.10;;;;;;5076881;28;20051;-27
2023/07/14 10:00:24;;;;;;;5.35;2.70;;;24.90;1.00;;;;;;5076854;28;20048;-27
2023/07/14 10:03:07;;;;;;;2.97;2.00;;;24.30;1.00;;;;;;5075631;28;20046;-28
2023/07/14 10:05:47;;;;;;;6.55;2.58;;;23.20;99.90;;;;;;5077669;28;20040;-27
2023/07/14 10:08:33;;;;;;;4.70;2.20;;;22.60;99.90;;;;;;5077563;28;20063;-26
2023/07/14 10:11:10;;;;;;;6.20;2.40;;;22.20;99.90;;;;;;5077345;28;20040;-27
2023/07/14 10:13:37;;;;;;;4.82;2.13;;;22.40;99.90;;;;;;5076558;28;20048;-28
2023/07/14 10:16:32;;;;;;;3.85;2.20;;;22.70;99.90;;;;;;5076549;28;20078;-27
2023/07/14 10:19:00;;;;;;;5.50;2.30;;;22.70;99.90;;;;;;5075646;28;20113;-27
2023/07/14 10:21:31;;;;;;;5.55;2.85;;;22.40;99.90;;;;;;5076388;28;20556;-27
2023/07/14 10:23:59;;;;;;;5.40;2.20;;;22.10;1.00;;;;;;5076417;28;20127;-26
2023/07/14 10:26:28;;;;;;;4.45;2.63;;;21.90;1.00;;;;;;5074888;28;20055;-26
2023/07/14 10:28:54;;;;;;;5.97;2.45;;;21.90;1.00;;;;;;5075750;28;20037;-27
2023/07/14 10:31:42;;;;;;;6.70;2.97;;;22.70;1.00;;;;;;5075690;28;20174;-27
2023/07/14 10:34:29;;;;;;;7.22;2.78;;;24.10;99.90;;;;;;5076362;28;20190;-27
2023/07/14 10:37:00;;;;;;;6.55;2.95;;;24.60;99.90;;;;;;5075115;28;20048;-29
2023/07/14 10:39:59;;;;;;;5.57;2.20;;;25.40;99.90;;;;;;5076776;28;20390;-28
2023/07/14 10:42:30;;;;;;;6.13;2.78;;;25.30;36.20;;;;;;5057914;28;20498;-27
2023/07/14 10:44:57;;;;;;;7.50;2.63;;;24.70;14.90;;;;;;5075537;28;20052;-26
2023/07/14 10:47:42;;;;;;;4.55;2.67;;;25.10;65.00;;;;;;5075063;28;20045;-27
2023/07/14 10:50:19;;;;;;;4.97;2.60;;;24.90;11.40;;;;;;5076047;28;20128;-27
2023/07/14 10:52:53;;;;;;;5.22;2.88;;;24.30;99.90;;;;;;5076045;28;20048;-27
2023/07/14 10:55:27;;;;;;;5.97;2.78;;;23.20;99.90;;;;;;5075886;28;20052;-27
2023/07/14 10:58:05;;;;;;;7.70;3.40;;;22.70;99.90;;;;;;5076152;28;20044;-27
2023/07/14 11:00:41;;;;;;;7.70;3.45;;;22.30;1.00;;;;;;5075817;28;20052;-27
2023/07/14 11:03:47;;;;;;;5.90;2.95;;;22.10;1.00;;;;;;5058104;28;20105;-27
2023/07/14 11:06:20;;;;;;;9.50;3.88;;;21.90;99.90;;;;;;5075434;28;20121;-27
2023/07/14 11:08:52;;;;;;;6.65;2.70;;;22.30;1.00;;;;;;5074645;28;20045;-27
2023/07/14 11:11:41;;;;;;;4.78;3.08;;;22.80;1.00;;;;;;5074962;28;20084;-27
2023/07/14 11:14:17;;;;;;;4.97;2.63;;;22.90;99.90;;;;;;5076137;28;20139;-27
2023/07/14 11:16:52;;;;;;;5.57;2.78;;;22.90;99.90;;;;;;5074820;28;20044;-27
2023/07/14 11:20:14;;;;;;;5.68;3.00;;;23.50;99.90;;;;;;5074792;28;20055;-27
2023/07/14 11:22:48;;;;;;;6.30;2.53;;;24.20;99.90;;;;;;5052563;28;20053;-27
2023/07/14 11:25:21;;;;;;;4.97;2.58;;;24.20;99.90;;;;;;5075296;28;20056;-27
2023/07/14 11:27:57;;;;;;;5.97;2.95;;;24.00;99.90;;;;;;5075284;28;20140;-26
2023/07/14 11:30:36;;;;;;;7.35;3.25;;;23.70;99.90;;;;;;5075845;28;20052;-27
2023/07/14 11:33:05;;;;;;;6.53;3.05;;;23.50;99.90;;;;;;5074206;28;20048;-27
2023/07/14 11:35:38;;;;;;;5.47;2.67;;;23.60;99.90;;;;;;5075022;28;20056;-27
2023/07/14 11:38:25;;;;;;;5.57;2.83;;;23.70;99.90;;;;;;5075385;28;20467;-27
2023/07/14 11:40:53;;;;;;;6.43;3.67;;;23.90;99.90;;;;;;5074453;28;20102;-27
2023/07/14 11:43:22;;;;;;;5.18;2.67;;;24.50;99.90;;;;;;5073541;28;20096;-27
2023/07/14 11:45:57;;;;;;;4.25;2.15;;;24.90;92.80;;;;;;5073730;28;20102;-27
2023/07/14 11:48:43;;;;;;;5.25;2.20;;;25.30;99.90;;;;;;5074565;28;20044;-27
2023/07/14 11:51:15;;;;;;;4.88;2.40;;;25.40;60.50;;;;;;5074782;28;20518;-28
2023/07/14 11:54:03;;;;;;;4.63;2.60;;;25.00;1.00;;;;;;5074777;28;20095;-27
2023/07/14 11:56:35;;;;;;;4.22;2.38;;;24.60;1.00;;;;;;5075346;28;20055;-27
2023/07/14 11:59:25;;;;;;;5.50;2.80;;;24.90;1.70;;;;;;5075298;28;20036;-29
2023/07/14 12:01:54;;;;;;;4.05;2.10;;;25.40;1.00;;;;;;5071690;28;20056;-27
2023/07/14 12:04:25;;;;;;;8.02;3.00;;;25.50;1.00;;;;;;5074426;28;20067;-28
2023/07/14 12:07:22;;;;;;;4.50;2.60;;;25.10;1.00;;;;;;5075097;28;20092;-28
2023/07/14 12:09:58;;;;;;;5.90;2.53;;;25.30;1.00;;;;;;5075242;28;20048;-27
2023/07/14 12:12:24;;;;;;;4.30;2.45;;;25.60;1.00;;;;;;5074383;28;20397;-27
2023/07/14 12:14:51;;;;;;;5.40;2.58;;;26.10;1.00;;;;;;5074296;28;20051;-27
2023/07/14 12:17:41;;;;;;;3.67;2.15;;;25.70;1.00;;;;;;5074244;28;20127;-27
2023/07/14 12:20:13;;;;;;;3.75;2.33;;;24.90;1.00;;;;;;5074170;28;20052;-27
2023/07/14 12:22:47;;;;;;;8.27;2.47;;;24.30;1.00;;;;;;5074102;28;20047;-27
2023/07/14 12:25:18;;;;;;;6.45;3.08;;;24.30;1.00;;;;;;5074645;28;20098;-27
2023/07/14 12:27:48;;;;;;;5.65;2.22;;;24.40;1.00;;;;;;5074611;28;20054;-27
2023/07/14 12:30:26;;;;;;;4.85;2.40;;;24.30;1.00;;;;;;5073862;28;20051;-27
2023/07/14 12:33:13;;;;;;;6.05;2.30;;;24.20;1.00;;;;;;5074034;28;20037;-27
2023/07/14 12:35:39;;;;;;;5.68;2.20;;;24.10;1.00;;;;;;5074338;28;20123;-28
2023/07/14 12:38:08;;;;;;;4.93;2.63;;;24.30;1.00;;;;;;5072660;28;20094;-27
2023/07/14 12:40:35;;;;;;;7.40;2.70;;;24.30;2.80;;;;;;5073567;28;20506;-28
2023/07/14 12:43:04;;;;;;;6.35;3.35;;;24.10;36.80;;;;;;5072518;28;20091;-26
2023/07/14 12:45:30;;;;;;;6.25;2.70;;;23.60;34.50;;;;;;5073709;28;20067;-28
2023/07/14 12:48:01;;;;;;;7.88;3.28;;;23.60;99.90;;;;;;5072619;28;20044;-27
2023/07/14 12:50:27;;;;;;;5.15;3.00;;;23.50;99.90;;;;;;5073850;28;20123;-28
2023/07/14 12:52:53;;;;;;;8.75;2.85;;;23.60;99.90;;;;;;5073754;28;20084;-27
2023/07/14 12:55:24;;;;;;;7.47;3.05;;;24.00;99.90;;;;;;5073844;28;20091;-28
2023/07/14 12:57:51;;;;;;;7.53;3.05;;;24.00;45.30;;;;;;5074044;28;20541;-27